createdAt,value
2023-11-19T00:00:12.749Z,3.30
2023-11-19T00:02:43.410Z,3.27
2023-11-19T00:05:13.089Z,2.97
2023-11-19T00:07:44.062Z,3.47
2023-11-19T00:10:12.287Z,3.70
2023-11-19T00:12:40.819Z,4.87
2023-11-19T00:15:12.570Z,4.17
2023-11-19T00:17:47.013Z,4.87
2023-11-19T00:20:15.481Z,5.07
2023-11-19T00:25:12.988Z,4.13
2023-11-19T00:27:39.862Z,4.90
2023-11-19T00:30:07.596Z,4.97
2023-11-19T00:32:34.530Z,4.50
2023-11-19T00:35:01.540Z,5.27
2023-11-19T00:37:28.249Z,4.93
2023-11-19T00:39:56.717Z,4.50
2023-11-19T00:42:25.195Z,4.37
2023-11-19T00:44:52.501Z,4.83
2023-11-19T00:47:21.555Z,4.00
2023-11-19T00:49:51.985Z,3.80
2023-11-19T00:52:19.791Z,2.90
2023-11-19T00:54:46.625Z,3.20
2023-11-19T00:57:13.377Z,2.80
2023-11-19T00:59:43.245Z,2.80
2023-11-19T01:02:10.382Z,2.33
2023-11-19T01:04:37.819Z,3.20
2023-11-19T01:07:05.380Z,2.73
2023-11-19T01:09:36.594Z,2.50
2023-11-19T01:12:04.232Z,2.93
2023-11-19T01:14:31.600Z,2.60
2023-11-19T01:16:58.912Z,2.70
2023-11-19T01:19:26.097Z,2.83
2023-11-19T01:21:52.999Z,2.73
2023-11-19T01:24:19.757Z,2.83
2023-11-19T01:26:47.604Z,2.23
2023-11-19T01:29:14.975Z,2.77
2023-11-19T01:31:42.559Z,2.10
2023-11-19T01:34:09.810Z,2.27
2023-11-19T01:36:36.570Z,1.87
2023-11-19T01:39:05.109Z,2.43
2023-11-19T01:41:38.002Z,2.47
2023-11-19T01:44:06.686Z,2.40
2023-11-19T01:46:34.370Z,2.50
2023-11-19T01:49:02.311Z,2.13
2023-11-19T01:51:29.858Z,2.23
2023-11-19T01:53:58.012Z,2.37
2023-11-19T01:56:26.625Z,1.90
2023-11-19T01:58:55.173Z,2.40
2023-11-19T02:01:22.505Z,2.13
2023-11-19T02:03:49.557Z,2.00
2023-11-19T02:06:16.564Z,2.03
2023-11-19T02:08:44.646Z,2.50
2023-11-19T02:11:11.962Z,1.97
2023-11-19T02:13:39.161Z,1.90
2023-11-19T02:16:06.479Z,2.20
2023-11-19T02:18:33.838Z,1.90
2023-11-19T02:21:01.156Z,1.90
2023-11-19T02:23:29.815Z,2.43
2023-11-19T02:26:03.283Z,2.10
2023-11-19T02:28:30.486Z,2.37
2023-11-19T02:30:57.369Z,1.90
2023-11-19T02:33:24.132Z,2.10
2023-11-19T02:35:50.859Z,2.00
2023-11-19T02:38:18.076Z,2.40
2023-11-19T02:40:44.777Z,1.87
2023-11-19T02:43:11.523Z,2.03
2023-11-19T02:45:38.428Z,1.80
2023-11-19T02:48:07.367Z,2.90
2023-11-19T02:50:34.235Z,1.90
2023-11-19T02:53:02.290Z,1.73
2023-11-19T02:55:31.637Z,3.00
2023-11-19T02:58:00.538Z,2.10
2023-11-19T03:00:47.836Z,3.47
2023-11-19T03:03:24.195Z,4.07
2023-11-19T03:05:51.226Z,3.80
2023-11-19T03:10:48.166Z,3.50
2023-11-19T03:13:15.440Z,2.00
2023-11-19T03:15:42.645Z,2.23
2023-11-19T03:18:09.588Z,3.10
2023-11-19T03:20:36.376Z,3.43
2023-11-19T03:23:03.124Z,2.93
2023-11-19T03:25:34.617Z,3.27
2023-11-19T03:28:05.512Z,2.70
2023-11-19T03:30:35.570Z,2.10
2023-11-19T03:33:03.563Z,2.10
2023-11-19T03:35:31.088Z,2.20
2023-11-19T03:37:57.852Z,1.70
2023-11-19T03:40:26.146Z,2.10
2023-11-19T03:42:52.916Z,1.60
2023-11-19T03:45:19.698Z,1.47
2023-11-19T03:47:46.441Z,1.27
2023-11-19T03:50:13.168Z,1.17
2023-11-19T03:55:09.973Z,1.07
2023-11-19T03:57:36.914Z,1.23
2023-11-19T04:00:11.002Z,1.57
2023-11-19T04:02:38.335Z,1.77
2023-11-19T04:05:06.268Z,1.90
2023-11-19T04:07:33.285Z,1.67
2023-11-19T04:10:00.634Z,2.00
2023-11-19T04:12:27.659Z,1.90
2023-11-19T04:17:24.300Z,1.90
2023-11-19T04:19:51.277Z,2.10
2023-11-19T04:22:18.076Z,2.30
2023-11-19T04:24:46.650Z,2.10
2023-11-19T04:27:13.754Z,2.00
2023-11-19T04:29:40.488Z,2.20
2023-11-19T04:32:07.421Z,1.70
2023-11-19T04:34:34.255Z,1.43
2023-11-19T04:39:34.063Z,1.20
2023-11-19T04:42:00.713Z,1.10
2023-11-19T04:44:27.429Z,0.90
2023-11-19T04:46:54.253Z,0.87
2023-11-19T04:49:21.887Z,1.00
2023-11-19T04:51:49.039Z,0.83
2023-11-19T04:54:16.035Z,0.70
2023-11-19T04:56:47.578Z,0.40
2023-11-19T04:59:14.363Z,0.40
2023-11-19T05:01:41.119Z,0.20
2023-11-19T05:04:09.160Z,0.30
2023-11-19T05:06:36.388Z,0.30
2023-11-19T05:09:08.756Z,0.20
2023-11-19T05:11:35.942Z,0.20
2023-11-19T05:14:06.287Z,0.40
2023-11-19T05:16:33.547Z,0.40
2023-11-19T05:19:00.460Z,0.20
2023-11-19T05:21:27.352Z,0.20
2023-11-19T05:23:55.461Z,0.30
2023-11-19T05:26:24.217Z,0.10
2023-11-19T05:28:51.458Z,0.40
2023-11-19T05:31:19.266Z,0.20
2023-11-19T05:33:46.308Z,0.20
2023-11-19T05:36:16.386Z,0.10
2023-11-19T05:38:43.052Z,0.23
2023-11-19T05:41:09.805Z,0.60
2023-11-19T05:43:36.705Z,0.30
2023-11-19T05:46:03.644Z,0.10
2023-11-19T05:48:30.384Z,0.20
2023-11-19T05:50:57.253Z,0.20
2023-11-19T05:53:24.006Z,0.20
2023-11-19T05:55:57.591Z,0.17
2023-11-19T05:58:30.176Z,0.10
2023-11-19T06:00:57.915Z,0.30
2023-11-19T06:03:25.091Z,0.20
2023-11-19T06:05:51.918Z,0.20
2023-11-19T06:08:18.639Z,0.17
2023-11-19T06:10:47.695Z,0.83
2023-11-19T06:13:16.543Z,0.73
2023-11-19T06:15:44.022Z,0.20
2023-11-19T06:18:12.846Z,0.10
2023-11-19T06:23:09.788Z,0.30
2023-11-19T06:25:36.724Z,0.20
2023-11-19T06:28:04.306Z,0.20
2023-11-19T06:30:33.424Z,0.40
2023-11-19T06:33:00.963Z,0.30
2023-11-19T06:35:27.927Z,0.20
2023-11-19T06:37:54.646Z,0.40
2023-11-19T06:40:21.674Z,0.30
2023-11-19T06:42:48.434Z,0.20
2023-11-19T06:45:15.511Z,0.23
2023-11-19T06:47:42.198Z,0.20
2023-11-19T06:50:10.308Z,0.30
2023-11-19T06:52:38.318Z,0.20
2023-11-19T06:55:09.196Z,0.30
2023-11-19T06:57:36.358Z,0.20
2023-11-19T07:00:03.841Z,0.30
2023-11-19T07:02:31.589Z,0.20
2023-11-19T07:04:58.649Z,0.43
2023-11-19T07:07:25.501Z,0.50
2023-11-19T07:09:52.261Z,0.80
2023-11-19T07:12:18.934Z,0.43
2023-11-19T07:14:45.585Z,1.20
2023-11-19T07:17:12.272Z,1.00
2023-11-19T07:19:39.703Z,0.90
2023-11-19T07:22:07.965Z,0.97
2023-11-19T07:24:34.889Z,0.40
2023-11-19T07:27:02.915Z,0.40
2023-11-19T07:29:30.300Z,0.40
2023-11-19T07:31:57.971Z,0.40
2023-11-19T07:34:26.030Z,0.30
2023-11-19T07:36:53.448Z,0.40
2023-11-19T07:39:22.117Z,1.07
2023-11-19T07:41:48.813Z,0.60
2023-11-19T07:44:15.629Z,0.60
2023-11-19T07:46:43.621Z,0.40
2023-11-19T07:49:11.318Z,0.60
2023-11-19T07:51:38.280Z,0.20
2023-11-19T07:54:05.462Z,0.50
2023-11-19T07:56:35.633Z,0.30
2023-11-19T07:59:05.784Z,0.30
2023-11-19T08:01:32.497Z,0.20
2023-11-19T08:04:00.222Z,0.30
2023-11-19T08:06:27.774Z,0.30
2023-11-19T08:08:54.450Z,0.40
2023-11-19T08:11:21.591Z,0.20
2023-11-19T08:13:48.697Z,0.37
2023-11-19T08:16:16.256Z,0.40
2023-11-19T08:18:44.593Z,0.50
2023-11-19T08:21:11.620Z,0.57
2023-11-19T08:23:39.349Z,0.50
2023-11-19T08:26:07.158Z,0.53
2023-11-19T08:28:35.516Z,0.53
2023-11-19T08:31:06.449Z,0.50
2023-11-19T08:33:33.728Z,1.40
2023-11-19T08:36:01.123Z,3.40
2023-11-19T08:41:00.900Z,6.50
2023-11-19T08:43:28.330Z,2.40
2023-11-19T08:45:55.363Z,2.27
2023-11-19T08:48:22.372Z,1.00
2023-11-19T08:50:49.370Z,0.90
2023-11-19T08:53:16.587Z,0.73
2023-11-19T08:55:43.519Z,1.17
2023-11-19T08:58:10.277Z,0.50
2023-11-19T09:00:36.978Z,0.70
2023-11-19T09:03:04.642Z,0.50
2023-11-19T09:05:31.738Z,0.50
2023-11-19T09:07:58.477Z,0.20
2023-11-19T09:10:25.246Z,0.60
2023-11-19T09:12:51.898Z,0.67
2023-11-19T09:15:18.622Z,0.40
2023-11-19T09:17:46.763Z,0.70
2023-11-19T09:20:16.429Z,0.60
2023-11-19T09:22:43.612Z,0.43
2023-11-19T09:25:10.581Z,1.67
2023-11-19T09:27:37.364Z,1.50
2023-11-19T09:30:05.201Z,1.20
2023-11-19T09:32:32.214Z,0.67
2023-11-19T09:34:59.266Z,0.60
2023-11-19T09:37:26.112Z,1.43
2023-11-19T09:39:54.283Z,1.43
2023-11-19T09:42:21.058Z,0.70
2023-11-19T09:44:49.029Z,0.50
2023-11-19T09:47:17.910Z,0.40
2023-11-19T09:49:45.485Z,0.90
2023-11-19T09:52:12.427Z,0.50
2023-11-19T09:54:39.187Z,0.40
2023-11-19T09:57:06.962Z,0.30
2023-11-19T09:59:34.590Z,0.30
2023-11-19T10:02:01.634Z,0.27
2023-11-19T10:04:32.721Z,0.30
2023-11-19T10:06:59.514Z,0.33
2023-11-19T10:09:26.379Z,0.30
2023-11-19T10:11:53.147Z,0.50
2023-11-19T10:14:24.176Z,0.30
2023-11-19T10:16:51.002Z,0.27
2023-11-19T10:19:21.864Z,0.57
2023-11-19T10:21:48.976Z,1.20
2023-11-19T10:24:30.116Z,0.97
2023-11-19T10:26:58.575Z,0.70
2023-11-19T10:29:25.701Z,0.50
2023-11-19T10:32:24.044Z,0.40
2023-11-19T10:34:48.181Z,0.60
2023-11-19T10:37:36.317Z,0.43
2023-11-19T10:40:06.233Z,0.40
2023-11-19T10:42:33.218Z,0.60
2023-11-19T10:44:59.931Z,0.70
2023-11-19T10:49:57.140Z,1.20
2023-11-19T10:52:24.844Z,0.60
2023-11-19T10:54:55.423Z,0.60
2023-11-19T10:57:25.686Z,0.50
2023-11-19T11:00:02.397Z,0.40
2023-11-19T11:02:31.530Z,0.70
2023-11-19T11:04:59.592Z,0.70
2023-11-19T11:07:32.728Z,0.47
2023-11-19T11:10:09.979Z,0.80
2023-11-19T11:12:42.983Z,0.60
2023-11-19T11:15:16.582Z,0.50
2023-11-19T11:17:45.837Z,0.40
2023-11-19T11:20:12.903Z,0.30
2023-11-19T11:23:10.381Z,0.30
2023-11-19T11:25:43.327Z,0.30
2023-11-19T11:28:28.185Z,0.13
2023-11-19T11:31:12.907Z,0.30
2023-11-19T11:36:35.660Z,0.20
2023-11-19T11:39:08.736Z,0.40
2023-11-19T11:41:35.545Z,0.30
2023-11-19T11:44:02.993Z,0.30
2023-11-19T11:46:38.260Z,0.13
2023-11-19T11:49:05.865Z,0.70
2023-11-19T11:51:44.863Z,0.60
2023-11-19T11:54:33.315Z,0.37
2023-11-19T11:59:43.122Z,0.40
2023-11-19T12:02:11.980Z,0.33
2023-11-19T12:04:40.980Z,0.30
2023-11-19T12:07:15.546Z,0.20
2023-11-19T12:09:43.251Z,0.60
2023-11-19T12:12:16.064Z,0.30
2023-11-19T12:15:07.829Z,0.37
2023-11-19T12:17:34.650Z,0.43
2023-11-19T12:20:02.688Z,0.40
2023-11-19T12:22:29.580Z,0.23
2023-11-19T12:24:57.404Z,0.20
2023-11-19T12:27:24.294Z,0.37
2023-11-19T12:29:51.713Z,0.30
2023-11-19T12:32:18.512Z,0.30
2023-11-19T12:34:46.463Z,0.53
2023-11-19T12:37:13.383Z,0.43
2023-11-19T12:39:41.635Z,0.40
2023-11-19T12:42:08.440Z,0.30
2023-11-19T12:44:35.480Z,0.40
2023-11-19T12:47:04.330Z,0.40
2023-11-19T12:49:31.403Z,0.30
2023-11-19T12:51:58.227Z,0.20
2023-11-19T12:54:35.749Z,0.20
2023-11-19T12:57:06.864Z,0.47
2023-11-19T12:59:33.585Z,0.30
2023-11-19T13:02:08.623Z,0.20
2023-11-19T13:04:35.978Z,0.20
2023-11-19T13:07:06.046Z,0.30
2023-11-19T13:09:33.595Z,0.30
2023-11-19T13:12:02.403Z,0.33
2023-11-19T13:14:43.331Z,0.27
2023-11-19T13:17:10.311Z,0.40
2023-11-19T13:19:37.023Z,0.53
2023-11-19T13:22:03.803Z,0.30
2023-11-19T13:24:30.536Z,0.20
2023-11-19T13:26:57.231Z,0.23
2023-11-19T13:29:23.952Z,0.30
2023-11-19T13:31:51.294Z,0.60
2023-11-19T13:34:18.068Z,0.30
2023-11-19T13:36:44.794Z,0.30
2023-11-19T13:39:13.282Z,0.40
2023-11-19T13:41:40.013Z,0.20
2023-11-19T13:44:06.739Z,0.60
2023-11-19T13:46:33.463Z,0.43
2023-11-19T13:49:00.202Z,0.40
2023-11-19T13:51:27.021Z,0.23
2023-11-19T13:53:53.745Z,0.30
2023-11-19T13:56:20.513Z,0.30
2023-11-19T13:58:47.342Z,0.30
2023-11-19T14:01:14.661Z,0.20
2023-11-19T14:03:42.954Z,0.33
2023-11-19T14:06:10.229Z,0.30
2023-11-19T14:08:37.164Z,0.40
2023-11-19T14:11:04.150Z,0.33
2023-11-19T14:13:30.892Z,0.37
2023-11-19T14:15:57.833Z,0.23
2023-11-19T14:18:24.937Z,0.23
2023-11-19T14:20:51.728Z,0.87
2023-11-19T14:23:18.949Z,0.30
2023-11-19T14:25:45.754Z,0.50
2023-11-19T14:28:13.731Z,0.50
2023-11-19T14:30:42.772Z,0.40
2023-11-19T14:33:10.080Z,0.27
2023-11-19T14:35:39.812Z,0.30
2023-11-19T14:38:10.815Z,0.47
2023-11-19T14:43:07.905Z,0.50
2023-11-19T14:45:39.392Z,0.50
2023-11-19T14:48:12.163Z,0.50
2023-11-19T14:50:39.008Z,0.77
2023-11-19T14:53:05.790Z,1.10
2023-11-19T14:55:33.270Z,0.77
2023-11-19T14:58:07.878Z,0.80
2023-11-19T15:00:39.646Z,0.77
2023-11-19T15:03:07.628Z,0.50
2023-11-19T15:05:35.647Z,0.90
2023-11-19T15:08:04.243Z,0.80
2023-11-19T15:10:31.083Z,0.60
2023-11-19T15:12:58.788Z,0.53
2023-11-19T15:17:55.303Z,0.57
2023-11-19T15:20:22.219Z,0.33
2023-11-19T15:22:49.107Z,0.40
2023-11-19T15:25:15.813Z,0.23
2023-11-19T15:27:42.785Z,0.40
2023-11-19T15:30:11.223Z,0.57
2023-11-19T15:32:41.593Z,0.33
2023-11-19T15:35:09.138Z,0.53
2023-11-19T15:37:36.854Z,0.50
2023-11-19T15:40:09.133Z,0.80
2023-11-19T15:42:36.579Z,0.50
2023-11-19T15:45:07.775Z,0.80
2023-11-19T15:47:36.622Z,0.80
2023-11-19T15:50:06.918Z,0.90
2023-11-19T15:52:33.981Z,0.70
2023-11-19T15:55:00.720Z,0.60
2023-11-19T15:57:27.986Z,0.50
2023-11-19T15:59:54.934Z,0.50
2023-11-19T16:02:21.890Z,0.37
2023-11-19T16:04:49.212Z,0.40
2023-11-19T16:07:16.188Z,0.60
2023-11-19T16:09:43.257Z,1.20
2023-11-19T16:12:10.084Z,0.80
2023-11-19T16:14:37.186Z,0.90
2023-11-19T16:17:04.130Z,1.00
2023-11-19T16:19:31.561Z,1.03
2023-11-19T16:21:58.326Z,0.80
2023-11-19T16:24:26.507Z,0.90
2023-11-19T16:26:53.320Z,1.80
2023-11-19T16:29:20.604Z,1.30
2023-11-19T16:31:49.421Z,1.00
2023-11-19T16:34:16.172Z,1.20
2023-11-19T16:36:44.687Z,1.17
2023-11-19T16:39:17.083Z,1.00
2023-11-19T16:41:44.646Z,1.07
2023-11-19T16:44:11.798Z,0.80
2023-11-19T16:46:39.237Z,1.00
2023-11-19T16:49:06.410Z,1.03
2023-11-19T16:51:33.431Z,1.10
2023-11-19T16:54:02.283Z,1.30
2023-11-19T16:56:29.254Z,1.60
2023-11-19T16:58:56.093Z,1.43
2023-11-19T17:01:22.968Z,1.50
2023-11-19T17:03:50.008Z,1.50
2023-11-19T17:06:16.976Z,1.50
2023-11-19T17:08:43.806Z,1.50
2023-11-19T17:11:10.911Z,1.23
2023-11-19T17:13:38.105Z,1.90
2023-11-19T17:16:07.738Z,1.87
2023-11-19T17:18:35.245Z,2.10
2023-11-19T17:21:02.026Z,1.73
2023-11-19T17:23:28.847Z,1.87
2023-11-19T17:25:56.014Z,1.60
2023-11-19T17:28:24.205Z,1.13
2023-11-19T17:30:50.985Z,1.50
2023-11-19T17:33:18.063Z,1.10
2023-11-19T17:35:45.086Z,1.60
2023-11-19T17:40:41.533Z,1.30
2023-11-19T17:43:08.345Z,1.30
2023-11-19T17:45:37.038Z,1.10
2023-11-19T17:48:04.524Z,1.40
2023-11-19T17:50:31.405Z,1.70
2023-11-19T17:52:59.195Z,2.73
2023-11-19T17:55:25.972Z,3.70
2023-11-19T17:57:52.851Z,3.50
2023-11-19T18:00:19.891Z,2.53
2023-11-19T18:02:49.662Z,2.70
2023-11-19T18:05:17.295Z,1.87
2023-11-19T18:07:44.373Z,2.33
2023-11-19T18:10:12.015Z,1.77
2023-11-19T18:12:39.754Z,1.90
2023-11-19T18:15:07.822Z,1.77
2023-11-19T18:17:35.304Z,1.43
2023-11-19T18:20:02.209Z,1.53
2023-11-19T18:22:31.092Z,2.47
2023-11-19T18:24:58.005Z,2.30
2023-11-19T18:27:24.778Z,1.97
2023-11-19T18:29:54.493Z,1.43
2023-11-19T18:32:21.376Z,1.83
2023-11-19T18:34:48.344Z,1.40
2023-11-19T18:37:15.186Z,1.33
2023-11-19T18:39:42.866Z,1.30
2023-11-19T18:42:09.664Z,0.97
2023-11-19T18:44:36.680Z,2.33
2023-11-19T18:47:03.908Z,1.87
2023-11-19T18:49:30.712Z,1.53
2023-11-19T18:52:00.537Z,1.23
2023-11-19T18:54:27.341Z,1.00
2023-11-19T18:56:58.023Z,1.07
2023-11-19T18:59:28.165Z,1.10
2023-11-19T19:01:58.010Z,1.10
2023-11-19T19:04:24.987Z,1.07
2023-11-19T19:06:51.894Z,1.07
2023-11-19T19:09:22.978Z,1.20
2023-11-19T19:11:50.401Z,1.00
2023-11-19T19:14:17.211Z,0.90
2023-11-19T19:16:44.309Z,1.00
2023-11-19T19:19:11.135Z,1.10
2023-11-19T19:21:38.677Z,0.80
2023-11-19T19:24:09.681Z,1.00
2023-11-19T19:26:37.760Z,1.00
2023-11-19T19:29:05.264Z,1.50
2023-11-19T19:31:32.321Z,3.33
2023-11-19T19:33:59.637Z,1.80
2023-11-19T19:36:29.210Z,2.93
2023-11-19T19:38:56.599Z,2.10
2023-11-19T19:41:27.960Z,1.50
2023-11-19T19:43:54.888Z,1.50
2023-11-19T19:46:21.908Z,2.33
2023-11-19T19:48:49.783Z,2.40
2023-11-19T19:51:16.639Z,1.40
2023-11-19T19:53:45.063Z,2.20
2023-11-19T19:56:11.846Z,9.43
2023-11-19T19:58:40.821Z,4.97
2023-11-19T20:01:09.474Z,4.57
2023-11-19T20:03:37.021Z,4.10
2023-11-19T20:06:12.416Z,1.70
2023-11-19T20:08:40.604Z,2.53
2023-11-19T20:11:11.478Z,1.93
2023-11-19T20:13:38.406Z,1.53
2023-11-19T20:16:05.653Z,1.80
2023-11-19T20:18:34.380Z,1.70
2023-11-19T20:21:05.132Z,1.33
2023-11-19T20:23:32.788Z,1.70
2023-11-19T20:25:59.801Z,1.47
2023-11-19T20:28:26.961Z,1.70
2023-11-19T20:30:53.798Z,1.60
2023-11-19T20:33:21.012Z,1.47
2023-11-19T20:35:47.812Z,1.33
2023-11-19T20:38:14.705Z,1.50
2023-11-19T20:40:42.335Z,1.57
2023-11-19T20:43:09.174Z,1.33
2023-11-19T20:45:36.516Z,1.70
2023-11-19T20:48:03.554Z,1.70
2023-11-19T20:50:31.426Z,1.47
2023-11-19T20:52:58.472Z,1.60
2023-11-19T20:55:26.926Z,1.83
2023-11-19T20:57:54.299Z,1.50
2023-11-19T21:00:22.592Z,1.23
2023-11-19T21:02:50.052Z,1.00
2023-11-19T21:05:17.310Z,1.03
2023-11-19T21:07:44.285Z,1.40
2023-11-19T21:10:13.774Z,1.40
2023-11-19T21:12:40.919Z,1.00
2023-11-19T21:15:08.372Z,1.43
2023-11-19T21:17:35.892Z,1.60
2023-11-19T21:20:03.842Z,1.30
2023-11-19T21:22:30.873Z,1.30
2023-11-19T21:24:57.778Z,1.33
2023-11-19T21:27:24.588Z,1.50
2023-11-19T21:29:51.469Z,1.30
2023-11-19T21:32:18.234Z,1.90
2023-11-19T21:34:45.129Z,1.70
2023-11-19T21:37:12.015Z,1.70
2023-11-19T21:39:38.844Z,1.10
2023-11-19T21:42:05.936Z,1.33
2023-11-19T21:44:32.746Z,0.97
2023-11-19T21:46:59.857Z,1.23
2023-11-19T21:49:26.707Z,1.00
2023-11-19T21:51:53.428Z,1.70
2023-11-19T21:54:20.173Z,1.30
2023-11-19T21:56:47.843Z,1.67
2023-11-19T21:59:14.608Z,1.60
2023-11-19T22:01:41.499Z,1.60
2023-11-19T22:04:09.089Z,2.20
2023-11-19T22:06:36.504Z,1.80
2023-11-19T22:09:03.786Z,2.10
2023-11-19T22:11:31.381Z,1.87
2023-11-19T22:13:58.096Z,1.43
2023-11-19T22:16:24.823Z,1.57
2023-11-19T22:18:53.130Z,1.70
2023-11-19T22:21:20.025Z,1.27
2023-11-19T22:23:46.791Z,1.40
2023-11-19T22:26:13.567Z,1.20
2023-11-19T22:28:41.863Z,1.83
2023-11-19T22:31:08.847Z,1.40
2023-11-19T22:33:36.109Z,1.50
2023-11-19T22:36:03.097Z,1.67
2023-11-19T22:38:29.823Z,1.47
2023-11-19T22:40:56.542Z,1.30
2023-11-19T22:43:23.279Z,1.47
2023-11-19T22:45:50.007Z,1.40
2023-11-19T22:48:16.955Z,1.40
2023-11-19T22:50:43.719Z,1.30
2023-11-19T22:53:10.394Z,1.57
2023-11-19T22:55:38.374Z,1.30
2023-11-19T22:58:05.262Z,1.40
2023-11-19T23:00:32.078Z,1.40
2023-11-19T23:03:00.930Z,1.30
2023-11-19T23:05:28.949Z,1.20
2023-11-19T23:07:55.964Z,1.50
2023-11-19T23:10:23.878Z,1.20
2023-11-19T23:12:50.989Z,1.50
2023-11-19T23:15:17.884Z,1.20
2023-11-19T23:17:45.159Z,1.07
2023-11-19T23:20:14.095Z,1.40
2023-11-19T23:22:41.672Z,1.10
2023-11-19T23:25:09.017Z,1.10
2023-11-19T23:27:36.416Z,1.10
2023-11-19T23:30:03.955Z,1.00
2023-11-19T23:32:30.850Z,1.17
2023-11-19T23:34:57.643Z,1.07
2023-11-19T23:37:26.217Z,1.23
2023-11-19T23:39:53.662Z,1.17
2023-11-19T23:42:23.569Z,0.93
2023-11-19T23:44:50.375Z,1.10
2023-11-19T23:47:17.042Z,1.40
2023-11-19T23:49:43.760Z,1.17
2023-11-19T23:52:10.612Z,1.10
2023-11-19T23:54:37.844Z,1.20
2023-11-19T23:57:05.104Z,1.53
2023-11-19T23:59:32.072Z,1.17
